Data for 05/26/2010

Time Sea-Level Adjusted Pressure Absolute Pressure Temperature Relative Humidity Dew Point   
(mb) (inHg) (mb) (inHg) (C) (F) (%) (C) (F)
00:05 1018 30.06 848 25.04 6.7 44 58 -0.9 30.3
00:10 1018 30.06 848 25.04 6.8 44.2 57 -1.1 30.1
00:15 1018 30.06 848 25.04 6.9 44.4 57 -1.1 30.1
00:20 1018 30.06 848 25.04 7 44.6 56 -1.1 30.1
00:25 1018 30.06 848 25.04 7 44.6 56 -1 30.1
00:30 1018 30.06 848 25.04 7 44.6 57 -1 30.1
00:35 1018 30.06 847 25.01 7 44.6 57 -1 30.2
00:40 1018 30.06 847 25.01 7.2 45 55 -1.3 29.7
00:45 1018 30.06 847 25.01 7.4 45.3 55 -1.1 30
00:50 1018 30.06 847 25.01 7.5 45.5 53 -1.4 29.5
00:55 1018 30.06 847 25.01 7.6 45.7 54 -1.1 29.9
01:00 1018 30.06 847 25.01 7.4 45.4 54 -1.1 30
01:05 1018 30.06 847 25.01 7.4 45.2 54 -1.3 29.7
01:10 1018 30.06 847 25.01 7.3 45.1 56 -0.9 30.4
01:15 1018 30.06 847 25.01 6.7 44.1 59 -0.6 30.9
01:20 1018 30.06 847 25.01 6.4 43.5 60 -0.8 30.6
01:25 1018 30.06 847 25.01 6.4 43.5 59 -1.1 30.1
01:30 1018 30.06 847 25.01 6.7 44.1 56 -1.5 29.2
01:35 1018 30.06 847 25.01 7.4 45.3 53 -1.5 29.3
01:40 1018 30.06 847 25.01 7.7 45.8 51 -1.7 28.9
01:45 1018 30.06 847 25.01 8 46.3 51 -1.6 29.1
01:50 1018 30.06 847 25.01 8 46.4 51 -1.5 29.2
01:55 1018 30.06 847 25.01 8 46.4 51 -1.4 29.4
02:00 1018 30.06 847 25.01 8.1 46.5 50 -1.7 29
02:05 1018 30.06 847 25.01 8.2 46.7 51 -1.4 29.5
02:10 1018 30.06 847 25.01 8.1 46.5 52 -1.1 30
02:15 1018 30.06 847 25.01 8 46.4 52 -1.2 29.9
02:20 1018 30.06 847 25.01 8 46.3 54 -0.9 30.4
02:25 1018 30.06 847 25.01 7.9 46.3 54 -0.8 30.5
02:30 1018 30.06 847 25.01 8 46.3 54 -0.7 30.8
02:35 1018 30.06 847 25.01 8 46.3 55 -0.4 31.2
02:40 1018 30.06 847 25.01 7.8 46.1 56 -0.4 31.3
02:45 1018 30.06 847 25.01 7.8 46 56 -0.5 31.1
02:50 1018 30.06 847 25.01 7.8 46 56 -0.5 31.1
02:55 1018 30.06 847 25.01 7.7 45.9 56 -0.4 31.3
03:00 1018 30.06 847 25.01 7.7 45.9 55 -0.7 30.8
03:05 1018 30.06 847 25.01 8.2 46.7 53 -0.8 30.6
03:10 1018 30.06 847 25.01 8.4 47.1 53 -0.5 31.1
03:15 1018 30.06 847 25.01 8.4 47 54 -0.4 31.2
03:20 1018 30.06 847 25.01 8.1 46.6 56 -0 32
03:25 1018 30.06 847 25.01 7.7 45.9 57 -0.2 31.7
03:30 1018 30.06 847 25.01 7.5 45.5 58 -0.2 31.6
03:35 1018 30.06 847 25.01 7.1 44.8 59 -0.2 31.6
03:40 1018 30.06 847 25.01 7 44.6 60 -0.3 31.5
03:45 1018 30.06 847 25.01 7 44.6 61 -0 31.9
03:50 1018 30.06 847 25.01 7 44.6 61 0.1 32.1
03:55 1017 30.03 847 25.01 7.1 44.8 61 0.1 32.2
04:00 1017 30.03 847 25.01 7 44.6 62 0.1 32.3
04:05 1017 30.03 847 25.01 6.9 44.4 61 0 32
04:10 1017 30.03 847 25.01 7 44.6 60 -0.2 31.7
04:15 1017 30.03 846 24.98 7.2 45 59 -0.2 31.6
04:20 1017 30.03 846 24.98 7.5 45.4 58 -0.4 31.4
04:25 1017 30.03 846 24.98 7.5 45.5 58 -0.2 31.6
04:30 1017 30.03 846 24.98 7.7 45.8 57 -0.4 31.4
04:35 1017 30.03 846 24.98 7.8 46 56 -0.4 31.4
04:40 1017 30.03 846 24.98 7.9 46.3 56 -0.4 31.3
04:45 1017 30.03 846 24.98 8 46.3 57 -0.1 31.9
04:50 1017 30.03 846 24.98 7.7 45.9 59 0.3 32.6
04:55 1017 30.03 846 24.98 7.4 45.4 61 0.3 32.6
05:00 1017 30.03 846 24.98 7.3 45.1 61 0.2 32.4
05:05 1017 30.03 846 24.98 7.1 44.8 61 0.2 32.3
05:10 1017 30.03 846 24.98 6.9 44.4 61 -0 32
05:15 1017 30.03 846 24.98 6.8 44.3 61 -0.2 31.6
05:20 1017 30.03 846 24.98 6.9 44.5 60 -0.2 31.7
05:25 1017 30.03 846 24.98 7.3 45.1 59 -0.1 31.8
05:30 1017 30.03 846 24.98 7.3 45.1 60 -0 32
05:35 1017 30.03 846 24.98 7.3 45.2 59 -0 31.9
05:40 1016 30 846 24.98 7.4 45.4 59 0 32.1
05:45 1016 30 846 24.98 7.6 45.6 59 0 32
05:50 1016 30 846 24.98 7.5 45.6 59 0.1 32.2
05:55 1017 30.03 846 24.98 7.5 45.6 60 0.4 32.6
06:00 1017 30.03 846 24.98 7.5 45.5 61 0.6 33.1
06:05 1017 30.03 846 24.98 7.4 45.4 61 0.3 32.6
06:10 1016 30 846 24.98 7.5 45.4 61 0.4 32.7
06:15 1016 30 846 24.98 7.5 45.5 59 0.1 32.2
06:20 1017 30.03 846 24.98 7.4 45.2 63 0.9 33.6
06:25 1016 30 846 24.98 7.1 44.7 65 0.9 33.6
06:30 1017 30.03 846 24.98 6.9 44.4 68 1.4 34.5
06:35 1017 30.03 846 24.98 6.7 44.1 69 1.3 34.4
06:40 1017 30.03 846 24.98 6.9 44.4 65 0.8 33.4
06:45 1017 30.03 846 24.98 7.1 44.8 66 1.3 34.3
06:50 1017 30.03 846 24.98 7.1 44.7 67 1.4 34.6
06:55 1017 30.03 846 24.98 7.3 45.1 64 0.9 33.6
07:00 1017 30.03 846 24.98 7.6 45.6 61 0.5 33
07:05 1016 30 846 24.98 8 46.3 60 0.7 33.3
07:10 1016 30 846 24.98 8 46.4 61 1 33.9
07:15 1016 30 846 24.98 7.9 46.2 63 1.2 34.2
07:20 1016 30 846 24.98 8 46.3 61 0.9 33.7
07:25 1017 30.03 846 24.98 8.1 46.6 63 1.4 34.6
07:30 1016 30 846 24.98 8.2 46.7 62 1.4 34.5
07:35 1016 30 846 24.98 8.3 47 63 1.7 35.1
07:40 1017 30.03 846 24.98 8.4 47.1 63 1.8 35.3
07:45 1016 30 846 24.98 8.7 47.6 62 1.8 35.2
07:50 1016 30 846 24.98 8.8 47.8 61 1.8 35.2
07:55 1017 30.03 846 24.98 9 48.2 60 1.7 35
08:00 1017 30.03 846 24.98 9.2 48.5 59 1.6 34.8
08:05 1016 30 846 24.98 9.3 48.8 58 1.5 34.7
08:10 1016 30 846 24.98 9.3 48.7 59 1.6 34.9
08:15 1016 30 846 24.98 9.3 48.7 57 1.4 34.4
08:20 1016 30 845 24.95 9.3 48.8 57 1.3 34.4
08:25 1016 30 845 24.95 9.5 49 58 1.6 34.9
08:30 1016 30 845 24.95 9.7 49.4 57 1.5 34.7
08:35 1016 30 845 24.95 9.8 49.7 56 1.6 34.8
08:40 1016 30 845 24.95 9.8 49.7 57 1.7 35
08:45 1016 30 845 24.95 9.7 49.4 57 1.5 34.7
08:50 1016 30 845 24.95 9.8 49.6 56 1.6 34.8
08:55 1016 30 845 24.95 9.9 49.8 56 1.6 34.8
09:00 1016 30 845 24.95 10 50 54 1.3 34.3
09:05 1016 30 845 24.95 10 50 56 1.7 35
09:10 1016 30 845 24.95 10.2 50.3 56 1.8 35.2
09:15 1016 30 845 24.95 10.5 50.9 55 1.9 35.4
09:20 1016 30 845 24.95 10.7 51.3 54 1.9 35.4
09:25 1016 30 845 24.95 11 51.8 54 2 35.6
09:30 1016 30 845 24.95 11.2 52.2 52 1.9 35.3
09:35 1016 30 845 24.95 11.3 52.3 54 2.4 36.3
09:40 1016 30 845 24.95 11.5 52.8 52 2.1 35.8
09:45 1016 30 845 24.95 11.6 52.9 53 2.4 36.2
09:50 1016 30 845 24.95 11.6 52.8 52 2.2 36
09:55 1016 30 845 24.95 11.5 52.7 52 2.1 35.8
10:00 1016 30 845 24.95 11.7 53 52 2.2 36
10:05 1016 30 845 24.95 11.7 53 51 2.1 35.7
10:10 1016 30 845 24.95 11.7 53 51 1.9 35.4
10:15 1016 30 845 24.95 11.8 53.2 51 2 35.7
10:20 1016 30 845 24.95 11.9 53.5 50 2 35.5
10:25 1016 30 845 24.95 11.8 53.2 51 1.9 35.4
10:30 1015 29.97 845 24.95 11.8 53.2 51 2 35.6
10:35 1015 29.97 845 24.95 12.3 54.2 49 2 35.6
10:40 1015 29.97 844 24.92 12.4 54.3 50 2.3 36.2
10:45 1015 29.97 844 24.92 12.3 54.2 49 2 35.5
10:50 1015 29.97 844 24.92 12.5 54.5 49 2.1 35.8
10:55 1015 29.97 844 24.92 12.5 54.5 49 2.1 35.7
11:00 1015 29.97 844 24.92 12.6 54.6 48 1.8 35.2
11:05 1015 29.97 844 24.92 12.8 55 48 2.2 36
11:10 1015 29.97 844 24.92 12.7 54.8 49 2.3 36.1
11:15 1015 29.97 844 24.92 12.7 54.8 51 2.8 37
11:20 1015 29.97 844 24.92 12.6 54.6 50 2.6 36.7
11:25 1015 29.97 844 24.92 12.5 54.4 52 2.9 37.3
11:30 1015 29.97 844 24.92 12.7 54.9 50 2.7 36.9
11:35 1015 29.97 844 24.92 12.9 55.1 50 2.8 37.1
11:40 1015 29.97 844 24.92 12.9 55.3 50 2.8 37.1
11:45 1015 29.97 844 24.92 13 55.5 50 3 37.3
11:50 1015 29.97 844 24.92 13.3 56 51 3.3 38
11:55 1015 29.97 844 24.92 13.6 56.5 50 3.4 38.2
12:00 1015 29.97 844 24.92 13.6 56.5 49 3.1 37.7
12:05 1015 29.97 844 24.92 13.9 56.9 47 2.8 37
12:10 1015 29.97 844 24.92 13.9 57 47 2.9 37.1
12:15 1015 29.97 844 24.92 14.1 57.4 47 3.1 37.6
12:20 1015 29.97 844 24.92 14.2 57.6 48 3.5 38.2
12:25 1015 29.97 844 24.92 14.3 57.7 48 3.6 38.5
12:30 1015 29.97 844 24.92 14.3 57.7 47 3.3 38
12:35 1014 29.94 844 24.92 14.2 57.5 45 2.6 36.7
12:40 1014 29.94 844 24.92 14.1 57.4 48 3.3 37.9
12:45 1014 29.94 844 24.92 14.5 58 47 3.4 38.2
12:50 1014 29.94 843 24.89 14.6 58.3 46 3.1 37.6
12:55 1014 29.94 843 24.89 14.9 58.8 46 3.5 38.2
13:00 1014 29.94 843 24.89 14.6 58.2 46 3.1 37.5
13:05 1014 29.94 843 24.89 14.6 58.2 44 2.5 36.5
13:10 1014 29.94 843 24.89 14.5 58.1 46 3 37.4
13:15 1014 29.94 843 24.89 14.3 57.8 47 3.1 37.6
13:20 1014 29.94 843 24.89 14.4 57.8 47 3.2 37.8
13:25 1014 29.94 843 24.89 14.3 57.8 47 3.3 38
13:30 1014 29.94 843 24.89 14.3 57.8 46 2.9 37.2
13:35 1014 29.94 844 24.92 14.6 58.2 46 3.2 37.7
13:40 1014 29.94 843 24.89 14.6 58.3 48 3.8 38.8
13:45 1014 29.94 843 24.89 14.6 58.4 47 3.5 38.3
13:50 1014 29.94 843 24.89 14.9 58.7 46 3.5 38.3
13:55 1014 29.94 843 24.89 14.7 58.5 46 3.4 38.2
14:00 1014 29.94 844 24.92 14.9 58.8 47 3.8 38.9
14:05 1014 29.94 844 24.92 14.6 58.3 44 2.7 36.9
14:10 1014 29.94 844 24.92 14.5 58.1 46 3.2 37.8
14:15 1014 29.94 844 24.92 14.4 57.8 45 2.8 37
14:20 1015 29.97 844 24.92 14.2 57.5 45 2.6 36.6
14:25 1014 29.94 844 24.92 14.3 57.7 47 3.2 37.7
14:30 1014 29.94 844 24.92 14.5 58.2 46 3.1 37.5
14:35 1014 29.94 844 24.92 14.6 58.2 47 3.3 38
14:40 1014 29.94 844 24.92 14.7 58.5 47 3.7 38.7
14:45 1014 29.94 844 24.92 14.8 58.6 48 4.1 39.4
14:50 1014 29.94 844 24.92 14.9 58.8 48 4 39.2
14:55 1015 29.97 844 24.92 14.9 58.9 49 4.4 40
15:00 1015 29.97 844 24.92 15.1 59.1 47 3.9 39
15:05 1015 29.97 844 24.92 15.1 59.2 47 3.9 39
15:10 1015 29.97 844 24.92 14.9 58.9 48 4 39.3
15:15 1015 29.97 844 24.92 14.6 58.4 49 4.1 39.5
15:20 1014 29.94 844 24.92 14.6 58.2 53 5 41.1
15:25 1014 29.94 844 24.92 14.5 58.2 54 5.3 41.6
15:30 1014 29.94 844 24.92 14.8 58.6 51 4.8 40.7
15:35 1014 29.94 844 24.92 15 59 51 5 41
15:40 1015 29.97 844 24.92 15.1 59.2 50 4.9 40.8
15:45 1014 29.94 844 24.92 15.3 59.5 49 4.8 40.7
15:50 1014 29.94 844 24.92 15.4 59.7 49 4.9 40.9
15:55 1014 29.94 844 24.92 15.4 59.7 50 5.1 41.3
16:00 1014 29.94 844 24.92 15.1 59.2 51 5.2 41.3
16:05 1014 29.94 844 24.92 15.1 59.2 52 5.4 41.7
16:10 1014 29.94 844 24.92 15 59 53 5.5 41.9
16:15 1014 29.94 844 24.92 15 59 53 5.7 42.2
16:20 1014 29.94 844 24.92 15.2 59.3 54 6 42.7
16:25 1014 29.94 843 24.89 15.1 59.2 54 5.8 42.5
16:30 1014 29.94 843 24.89 15.2 59.3 55 6.3 43.3
16:35 1014 29.94 843 24.89 15.2 59.3 54 6.1 43
16:40 1014 29.94 843 24.89 15.2 59.3 55 6.4 43.5
16:45 1014 29.94 843 24.89 15.3 59.5 55 6.3 43.4
16:50 1014 29.94 843 24.89 15.3 59.5 55 6.4 43.5
16:55 1014 29.94 843 24.89 15.4 59.7 55 6.6 43.8
17:00 1014 29.94 843 24.89 15.4 59.6 55 6.5 43.7
17:05 1014 29.94 844 24.92 15.3 59.6 55 6.5 43.7
17:10 1014 29.94 844 24.92 15.4 59.7 55 6.5 43.8
17:15 1014 29.94 844 24.92 15.4 59.6 56 6.7 44.1
17:20 1014 29.94 844 24.92 15.4 59.6 56 6.6 43.9
17:25 1014 29.94 844 24.92 15.3 59.5 55 6.5 43.7
17:30 1014 29.94 843 24.89 15.3 59.6 55 6.5 43.6
17:35 1014 29.94 843 24.89 15.5 59.9 53 6 42.9
17:40 1014 29.94 843 24.89 15.6 60.1 53 6.1 43
17:45 1014 29.94 843 24.89 15.6 60.1 53 6.2 43.2
17:50 1014 29.94 843 24.89 15.6 60.1 54 6.5 43.8
17:55 1014 29.94 844 24.92 15.7 60.3 55 6.7 44
18:00 1014 29.94 844 24.92 15.8 60.4 53 6.3 43.3
18:05 1014 29.94 844 24.92 15.9 60.7 52 6.3 43.3
18:10 1014 29.94 844 24.92 16 60.8 53 6.6 43.9
18:15 1014 29.94 844 24.92 15.9 60.7 54 6.8 44.2
18:20 1014 29.94 844 24.92 15.9 60.6 54 6.7 44.1
18:25 1014 29.94 844 24.92 15.8 60.5 54 6.5 43.7
18:30 1014 29.94 844 24.92 15.9 60.6 54 6.6 43.9
18:35 1014 29.94 844 24.92 16 60.8 53 6.6 43.9
18:40 1014 29.94 844 24.92 16.3 61.3 53 6.8 44.2
18:45 1014 29.94 844 24.92 16.3 61.4 53 6.7 44.1
18:50 1014 29.94 844 24.92 16.2 61.1 52 6.5 43.6
18:55 1014 29.94 844 24.92 16.1 61.1 52 6.4 43.5
19:00 1015 29.97 844 24.92 16.1 61 52 6.3 43.4
19:05 1015 29.97 844 24.92 16 60.9 52 6.4 43.5
19:10 1015 29.97 844 24.92 16 60.8 53 6.4 43.5
19:15 1015 29.97 844 24.92 15.9 60.7 52 6.3 43.3
19:20 1015 29.97 844 24.92 15.8 60.5 52 6.2 43.2
19:25 1015 29.97 844 24.92 15.8 60.4 53 6.3 43.3
19:30 1015 29.97 844 24.92 15.7 60.2 54 6.6 43.8
19:35 1015 29.97 844 24.92 15.6 60 55 6.6 43.9
19:40 1015 29.97 844 24.92 15.6 60.1 54 6.5 43.6
19:45 1015 29.97 844 24.92 15.6 60.1 55 6.8 44.2
19:50 1015 29.97 844 24.92 15.5 59.9 56 6.8 44.3
19:55 1015 29.97 844 24.92 15.4 59.8 57 6.9 44.5
20:00 1015 29.97 844 24.92 15.3 59.5 57 6.9 44.5
20:05 1015 29.97 844 24.92 15.1 59.2 58 7 44.7
20:10 1015 29.97 844 24.92 14.8 58.7 59 7 44.6
20:15 1015 29.97 844 24.92 14.6 58.3 60 7.1 44.7
20:20 1015 29.97 844 24.92 14.4 58 61 7.1 44.8
20:25 1015 29.97 844 24.92 14.3 57.7 63 7.3 45.1
20:30 1015 29.97 844 24.92 14.2 57.5 63 7.3 45.1
20:35 1015 29.97 844 24.92 14.1 57.4 63 7.2 44.9
20:40 1015 29.97 844 24.92 14.1 57.4 62 7 44.6
20:45 1015 29.97 844 24.92 14.1 57.4 62 7.1 44.7
20:50 1015 29.97 844 24.92 14.1 57.3 61 6.8 44.2
20:55 1015 29.97 844 24.92 14.1 57.4 62 7 44.5
21:00 1015 29.97 844 24.92 14 57.2 62 6.8 44.3
21:05 1015 29.97 844 24.92 14 57.1 62 6.8 44.2
21:10 1015 29.97 844 24.92 13.9 57 63 6.9 44.5
21:15 1015 29.97 844 24.92 13.9 56.9 62 6.7 44
21:20 1015 29.97 844 24.92 13.9 57.1 62 6.8 44.3
21:25 1015 29.97 844 24.92 13.8 56.9 63 7 44.5
21:30 1015 29.97 844 24.92 13.8 56.9 63 6.9 44.5
21:35 1015 29.97 845 24.95 13.8 56.8 63 7 44.6
21:40 1015 29.97 845 24.95 13.7 56.7 64 7 44.6
21:45 1015 29.97 845 24.95 13.7 56.6 64 7.1 44.8
21:50 1016 30 845 24.95 13.5 56.4 65 7.1 44.7
21:55 1016 30 845 24.95 13.5 56.3 64 6.9 44.4
22:00 1016 30 845 24.95 13.5 56.3 63 6.7 44.1
22:05 1016 30 845 24.95 13.6 56.4 64 6.9 44.4
22:10 1016 30 845 24.95 13.5 56.3 64 6.8 44.3
22:15 1016 30 845 24.95 13.5 56.3 63 6.8 44.2
22:20 1016 30 845 24.95 13.5 56.3 63 6.8 44.2
22:25 1016 30 845 24.95 13.5 56.3 64 6.8 44.3
22:30 1016 30 845 24.95 13.4 56.1 65 6.9 44.4
22:35 1016 30 845 24.95 13.2 55.8 66 7 44.6
22:40 1016 30 845 24.95 13 55.5 63 6.1 43.1
22:45 1016 30 845 24.95 12.9 55.2 63 6.1 43
22:50 1016 30 845 24.95 12.8 55.1 62 5.9 42.5
22:55 1016 30 845 24.95 12.7 54.8 64 6 42.9
23:00 1016 30 845 24.95 12.4 54.2 67 6.4 43.6
23:05 1016 30 845 24.95 12 53.7 69 6.6 43.8
23:10 1016 30 845 24.95 11.5 52.8 72 6.7 44
23:15 1016 30 845 24.95 11.2 52.2 73 6.7 44
23:20 1016 30 845 24.95 11 51.8 74 6.6 43.9
23:25 1016 30 845 24.95 10.9 51.6 75 6.6 43.8
23:30 1016 30 845 24.95 10.8 51.4 75 6.5 43.7
23:35 1016 30 845 24.95 10.8 51.4 74 6.4 43.5
23:40 1016 30 845 24.95 10.8 51.4 73 6.2 43.2
23:45 1016 30 845 24.95 10.9 51.6 72 6.1 43.1
23:50 1016 30 845 24.95 11 51.7 72 6.2 43.1
23:55 1016 30 845 24.95 11.1 52 71 6.1 43
24:00 1016 30 845 24.95 11.1 52 71 6.1 42.9